Accueil
METAR-TAF:

METAR-TAF

Aéroports :

Christchurch, Nouvelle-Zélande

Aéroport international de Christchurch

latitude: 43-29S, longitude: 172-33E, altitude: 38 m

Observation

Le bulletin a été fait il y a 21 minutes, à 00:00 UTC
Vent 7 kt de sud, variant entre est/sud-est et sud-ouest
Température 17°C
Humidité 63%
Pression 1020 hPa
Visibilité 10 km ou plus

METAR: NZCH 200000Z AUTO 18007KT 120V230 9999 BKN026/// BKN065/// 17/10 Q1020 NOSIG

Heure: 13:21 (00:21 UTC)

Prévision

Le bulletin a été fait il y a 1 heure et 13 minutes, à 23:08 UTC
Prévision valable du 20 à 00 UTC au 21 à 00 UTC
Vent 8 kt de sud/sud-ouest
Visibilité 10 km ou plus
Nuages fragmentés à une hauteur de 2000 ft
Temporairement
du 20 à 19 UTC au 20 à 23 UTC
Visibilité: 7000 m
averses de pluie

TAF: NZCH 192308Z 2000/2100 20008KT 9999 BKN020 TEMPO 2019/2023 7000 SHRA

Observations et prévisions météorologiques de plus de 4000 aéroports (messages METAR et TAF).

Les stations disponibles sont représentées par des disques jaunes et rouges sur la carte.

Passer la souris dessus pour voir le nom de la station.

Cliquer dessus pour voir les observations et prévisions météorologiques.

Pour changer de carte: cliquez sur les boutons verts avec une croix noire pour zoomer, sur le bouton vert avec un tiret pour effectuer un zoom arrière, ou sur les flèches vertes pour les cartes adjacentes.


METAR-TAF: